Fairpoint, OH

1:18 AM EDT on September 29, 2016 (GMT -0400)
Morristown, Ohio | | Change Station

Elev 1283 ft 40.08 °N, 81.06 °W | Updated 7 seconds ago

Overcast
Overcast
56.5 °F
Feels Like 56.5 °F
N
0.0
Wind Variable Wind from SW

Today
High -- | Low -- °F
--% Chance of Precip.
Yesterday
High -- | Low -- °F
Precip. -- in
Pressure 30.01 in
Visibility 10.0 miles
Clouds Overcast 1900 ft
Dew Point 54 °F
Humidity 93%
Rainfall 0.00 in
Snow Depth Not available.
7:18 AM 7:08 PM
Waning Crescent, 3% visible
METAR KHLG 290453Z AUTO 26008KT 10SM OVC019 15/11 A3002 RMK AO2 SLP163 T01500106 402500106
Pressure 30.01 in
Visibility 10.0 miles
Clouds Overcast 1900 ft
Dew Point 54 °F
Humidity 93%
Rainfall 0.00 in
Snow Depth Not available.
7:18 AM 7:08 PM
Waning Crescent, 3% visible
METAR KHLG 290453Z AUTO 26008KT 10SM OVC019 15/11 A3002 RMK AO2 SLP163 T01500106 402500106

10-Day Weather Forecast

Almanac

Astronomy

Sep. 29, 2016 Rise Set
Actual Time
Civil Twilight
Nautical Twilight
Astronomical Twilight
Moon
Length of Visible Light
Length of Day
Tomorrow will be .
, % of the Moon is Illuminated

Today's Extremes

State Highs State Lows

Community

WunderPhotos

Upload Photos

1,942,444 photos uploaded!

WunderBlog® & News

Nearby

Air Quality

  Air Quality AQ Index Pollutant
Not available.

Snow Depth

Station Depth Elevation

Earthquake Activity

City Distance Mag. Time & Date
Minimum magnitude displayed is 2.5.

Coastal Water Temperatures

Place Temperature

Stations

Nearby Weather Stations

Station Location Temp. Windchill Dew Point Humidity Wind Precip. Elev Updated Type
                   

Watches & Warnings

There are currently no watches in effect.